createdAt,value
2023-05-13T14:39:00.635Z,22.91
2023-05-13T14:42:55.765Z,22.93
2023-05-13T14:46:22.880Z,23.51
2023-05-13T14:54:27.424Z,23.59
2023-05-13T14:58:08.731Z,23.71
2023-05-13T15:02:07.590Z,23.63
2023-05-13T15:06:03.337Z,23.51
2023-05-13T15:09:29.571Z,23.31
2023-05-13T15:12:55.460Z,23.57
2023-05-13T15:16:19.128Z,23.34
2023-05-13T15:19:44.452Z,23.08
2023-05-13T15:23:14.413Z,22.64
2023-05-13T15:26:41.218Z,22.50
2023-05-13T15:30:12.030Z,22.95
2023-05-13T15:33:33.360Z,23.11
2023-05-13T15:36:56.960Z,23.10
2023-05-13T15:40:23.653Z,23.30
2023-05-13T15:43:45.552Z,24.14
2023-05-13T15:47:06.711Z,24.44
2023-05-13T15:50:27.758Z,25.05
2023-05-13T15:53:48.700Z,25.45
2023-05-13T15:57:50.046Z,26.52
2023-05-13T16:02:43.642Z,25.26
2023-05-13T16:06:41.277Z,25.12
2023-05-13T16:10:23.872Z,24.80
2023-05-13T16:24:15.652Z,24.85
2023-05-13T16:29:25.339Z,24.94
2023-05-13T16:37:19.354Z,24.91
2023-05-13T16:42:13.930Z,25.12
2023-05-13T16:52:55.391Z,25.66
2023-05-13T16:56:57.286Z,25.77
2023-05-13T17:05:32.493Z,25.68
2023-05-13T17:09:23.456Z,25.81
2023-05-13T17:13:31.187Z,25.94
2023-05-13T17:23:39.813Z,26.31
2023-05-13T17:26:51.072Z,26.52
2023-05-13T17:35:40.248Z,26.95
2023-05-13T17:43:23.590Z,26.77
2023-05-13T17:46:50.583Z,27.29
2023-05-13T17:50:40.622Z,27.08
2023-05-13T17:54:04.709Z,26.82
2023-05-13T17:57:49.886Z,26.75
2023-05-13T18:01:52.528Z,26.71
2023-05-13T18:05:13.652Z,26.78
2023-05-13T18:08:50.668Z,26.74
2023-05-13T18:15:58.254Z,26.77
2023-05-13T18:19:22.722Z,26.94
2023-05-13T18:22:52.065Z,27.15
2023-05-13T18:26:26.750Z,27.24
2023-05-13T18:29:47.664Z,27.15
2023-05-13T18:33:08.699Z,27.06
2023-05-13T18:36:30.255Z,27.06
2023-05-13T18:39:51.236Z,27.03
2023-05-13T18:43:15.349Z,27.08
2023-05-13T18:46:44.667Z,27.34
2023-05-13T18:50:12.419Z,27.62
2023-05-13T18:53:45.197Z,27.96
2023-05-13T18:57:12.830Z,28.09
2023-05-13T19:00:38.048Z,28.37
2023-05-13T19:04:02.103Z,28.72
2023-05-13T19:07:29.542Z,29.11
2023-05-13T19:11:27.527Z,29.42
2023-05-13T19:14:46.696Z,30.15
2023-05-13T19:18:10.727Z,30.92
